Time;durP1;ratioP1;P1;durP2;ratioP2;P2;SDS_P1;SDS_P2;PMS_P1;PMS_P2;Temp;Humidity;BMP_temperature;BMP_pressure;BME280_temperature;BME280_humidity;BME280_pressure;Samples;Min_cycle;Max_cycle;Signal;HPM_P1;HPM_P2
2022/03/13 00:02:16;;;;;;;5.50;3.72;;;;;;;17.87;23.17;100384.28;5112021;28;20115;-74
2022/03/13 00:04:49;;;;;;;6.13;2.95;;;;;;;17.87;23.13;100380.78;5097319;28;20036;-74
2022/03/13 00:07:25;;;;;;;4.57;3.10;;;;;;;17.86;22.94;100377.25;5097626;28;20130;-73
2022/03/13 00:09:51;;;;;;;3.97;2.72;;;;;;;17.87;23.36;100372.75;5109369;28;20036;-73
2022/03/13 00:12:26;;;;;;;4.75;3.30;;;;;;;17.88;23.35;100375.25;5108946;28;20050;-72
2022/03/13 00:14:55;;;;;;;4.38;3.22;;;;;;;17.88;23.45;100369.91;5109296;28;20043;-72
2022/03/13 00:17:27;;;;;;;4.47;3.00;;;;;;;17.91;23.19;100374.97;5108485;28;20027;-72
2022/03/13 00:19:54;;;;;;;4.50;3.53;;;;;;;17.94;23.19;100368.50;5106400;28;21479;-69
2022/03/13 00:22:19;;;;;;;6.18;3.80;;;;;;;17.95;22.99;100365.66;5107959;28;20059;-73
2022/03/13 00:24:45;;;;;;;3.70;2.88;;;;;;;17.98;22.86;100376.09;5107771;28;20556;-71
2022/03/13 00:27:11;;;;;;;5.43;3.28;;;;;;;18.00;23.11;100370.59;5107834;28;20062;-75
2022/03/13 00:29:36;;;;;;;4.75;3.45;;;;;;;18.01;23.00;100372.28;5108038;28;20425;-76
2022/03/13 00:32:03;;;;;;;5.22;3.88;;;;;;;17.97;23.25;100366.38;5109065;28;20039;-75
2022/03/13 00:34:29;;;;;;;4.63;3.28;;;;;;;18.03;23.51;100366.75;5109030;28;20039;-75
2022/03/13 00:36:54;;;;;;;4.50;3.38;;;;;;;18.01;23.23;100366.91;5108644;28;20136;-74
2022/03/13 00:39:20;;;;;;;4.55;3.53;;;;;;;17.99;23.95;100363.53;5106381;28;20039;-70
2022/03/13 00:41:46;;;;;;;5.68;3.72;;;;;;;17.96;23.85;100361.13;5114590;28;20074;-75
2022/03/13 00:44:12;;;;;;;4.72;3.70;;;;;;;17.93;24.21;100366.81;5108924;28;20463;-76
2022/03/13 00:46:38;;;;;;;4.38;3.47;;;;;;;17.89;23.82;100368.09;5107792;28;20163;-76
2022/03/13 00:49:04;;;;;;;4.32;3.38;;;;;;;17.88;23.54;100366.41;5107333;28;20146;-74
2022/03/13 00:51:30;;;;;;;5.57;3.53;;;;;;;17.88;23.85;100369.06;5106982;28;20139;-74
2022/03/13 00:53:55;;;;;;;5.25;3.55;;;;;;;17.93;23.55;100380.19;5107129;28;20043;-75
2022/03/13 00:56:21;;;;;;;3.30;2.88;;;;;;;17.95;23.84;100378.19;5108405;28;20130;-76
2022/03/13 00:58:47;;;;;;;4.72;3.75;;;;;;;17.94;23.70;100380.03;5111006;27;20118;-74
2022/03/13 01:01:12;;;;;;;5.07;3.95;;;;;;;17.93;24.41;100372.97;5112042;27;20046;-73
2022/03/13 01:03:38;;;;;;;5.38;4.25;;;;;;;17.92;23.71;100371.31;5112311;28;20538;-74
2022/03/13 01:06:06;;;;;;;5.22;4.15;;;;;;;17.91;23.67;100364.25;5113026;27;20029;-74
2022/03/13 01:08:31;;;;;;;4.03;3.22;;;;;;;17.91;23.93;100372.28;5109309;28;20118;-76
2022/03/13 01:10:58;;;;;;;3.28;2.55;;;;;;;17.90;24.09;100373.28;5111568;27;20057;-74
2022/03/13 01:13:24;;;;;;;4.20;3.00;;;;;;;17.88;24.06;100372.56;5111834;27;20039;-75
2022/03/13 01:15:55;;;;;;;4.32;3.33;;;;;;;17.88;24.27;100375.25;5111860;27;20076;-73
2022/03/13 01:18:21;;;;;;;3.83;3.00;;;;;;;17.88;24.08;100369.91;5109267;27;20031;-75
2022/03/13 01:20:47;;;;;;;3.75;2.90;;;;;;;17.90;24.06;100377.81;5112270;28;20044;-74
2022/03/13 01:23:16;;;;;;;4.30;2.90;;;;;;;17.91;23.76;100379.50;5110937;28;20066;-74
2022/03/13 01:25:41;;;;;;;3.60;3.03;;;;;;;17.90;23.87;100381.31;5110890;27;20051;-70
2022/03/13 01:28:07;;;;;;;3.75;2.90;;;;;;;17.91;23.84;100385.66;5111137;27;20397;-70
2022/03/13 01:30:33;;;;;;;4.55;3.13;;;;;;;17.92;23.66;100386.53;5112132;27;20715;-72
2022/03/13 01:32:59;;;;;;;3.15;2.50;;;;;;;17.89;24.19;100384.97;5112031;27;20035;-74
2022/03/13 01:35:25;;;;;;;4.25;2.78;;;;;;;17.92;24.08;100386.53;5112393;27;20059;-74
2022/03/13 01:37:52;;;;;;;4.03;2.88;;;;;;;17.92;24.17;100392.72;5110905;27;20490;-74
2022/03/13 01:40:21;;;;;;;2.58;1.95;;;;;;;17.92;23.92;100391.88;5110041;27;20039;-70
2022/03/13 01:42:48;;;;;;;5.60;2.67;;;;;;;17.94;24.19;100390.75;5113626;27;20047;-73
2022/03/13 01:45:16;;;;;;;3.95;2.63;;;;;;;17.93;23.51;100394.41;5110986;27;20062;-70
2022/03/13 01:47:42;;;;;;;2.78;2.10;;;;;;;17.94;23.96;100389.91;5114058;28;20059;-70
2022/03/13 01:50:09;;;;;;;3.25;2.25;;;;;;;17.96;23.72;100390.56;5111880;27;20470;-69
2022/03/13 01:52:37;;;;;;;2.58;1.98;;;;;;;17.98;23.90;100392.16;5110559;27;20046;-75
2022/03/13 01:55:04;;;;;;;3.80;2.22;;;;;;;18.02;23.88;100403.41;5109400;28;20067;-72
2022/03/13 01:57:29;;;;;;;3.33;2.25;;;;;;;18.03;23.96;100402.44;5112673;27;20057;-72
2022/03/13 01:59:59;;;;;;;3.22;2.50;;;;;;;18.03;24.03;100401.56;5110968;28;20036;-70
2022/03/13 02:02:28;;;;;;;5.63;2.05;;;;;;;18.02;23.94;100406.09;5094476;28;20075;-75
2022/03/13 02:04:56;;;;;;;2.95;2.30;;;;;;;18.03;23.78;100404.25;5095117;28;20035;-73
2022/03/13 02:07:25;;;;;;;3.65;2.17;;;;;;;18.04;23.84;100406.78;5095473;28;20039;-74
2022/03/13 02:09:51;;;;;;;2.85;2.08;;;;;;;18.06;23.83;100403.97;5114229;28;20031;-75
2022/03/13 02:12:20;;;;;;;3.00;2.20;;;;;;;18.04;24.07;100398.75;5095023;28;20403;-75
2022/03/13 02:14:47;;;;;;;3.50;2.70;;;;;;;18.07;24.07;100411.88;5095028;28;20078;-75
2022/03/13 02:17:23;;;;;;;3.90;2.38;;;;;;;18.04;24.15;100409.47;5098695;28;20035;-75
2022/03/13 02:19:48;;;;;;;3.80;2.75;;;;;;;18.04;24.05;100404.13;5113706;28;20035;-75
2022/03/13 02:22:15;;;;;;;3.85;2.30;;;;;;;18.06;24.07;100417.34;5113097;28;20164;-74
2022/03/13 02:24:40;;;;;;;4.05;2.22;;;;;;;18.04;23.97;100400.59;5114483;28;20063;-75
2022/03/13 02:27:06;;;;;;;3.10;2.20;;;;;;;18.07;24.13;100403.84;5114503;28;20394;-73
2022/03/13 02:29:33;;;;;;;3.47;2.10;;;;;;;18.08;23.99;100402.84;5114505;28;20039;-73
2022/03/13 02:32:00;;;;;;;3.17;2.15;;;;;;;18.10;23.85;100400.81;5114729;28;20043;-76
2022/03/13 02:34:26;;;;;;;3.00;2.10;;;;;;;18.13;24.05;100403.22;5114989;28;20040;-75
2022/03/13 02:36:58;;;;;;;2.55;1.83;;;;;;;18.13;24.21;100399.72;5114733;28;20513;-76
2022/03/13 02:39:25;;;;;;;2.60;1.80;;;;;;;18.12;24.12;100403.38;5114501;27;20126;-75
2022/03/13 02:41:51;;;;;;;3.78;1.90;;;;;;;18.10;23.92;100403.50;5123670;27;20039;-75
2022/03/13 02:44:17;;;;;;;2.00;1.55;;;;;;;18.12;24.00;100404.22;5114161;28;20035;-74
2022/03/13 02:46:54;;;;;;;2.60;2.08;;;;;;;18.11;24.08;100402.50;5114083;28;20047;-72
2022/03/13 02:49:23;;;;;;;2.08;1.50;;;;;;;18.11;24.11;100415.06;5113812;28;20031;-74
2022/03/13 02:51:51;;;;;;;3.70;1.73;;;;;;;18.11;23.91;100417.75;5111715;28;20530;-75
2022/03/13 02:54:18;;;;;;;3.05;1.88;;;;;;;18.12;23.93;100420.28;5114275;28;20043;-73
2022/03/13 02:56:45;;;;;;;2.65;1.70;;;;;;;18.12;23.81;100417.59;5113814;28;20439;-73
2022/03/13 02:59:12;;;;;;;3.58;1.90;;;;;;;18.13;23.98;100421.97;5114097;28;20100;-77
2022/03/13 03:01:38;;;;;;;2.70;1.95;;;;;;;18.14;23.92;100417.47;5093404;28;20032;-74
2022/03/13 03:04:04;;;;;;;3.20;2.00;;;;;;;18.12;24.21;100425.63;5112167;28;20080;-71
2022/03/13 03:06:30;;;;;;;2.65;1.75;;;;;;;17.83;24.42;100423.06;5110789;27;20036;-75
2022/03/13 03:08:56;;;;;;;3.03;1.65;;;;;;;17.49;24.74;100429.78;5112853;28;20412;-73
2022/03/13 03:11:22;;;;;;;2.80;2.20;;;;;;;17.19;24.90;100428.13;5110019;28;20039;-74
2022/03/13 03:13:48;;;;;;;4.30;2.50;;;;;;;16.95;24.91;100436.56;5107358;28;20024;-72
2022/03/13 03:16:13;;;;;;;2.92;1.85;;;;;;;16.69;25.20;100432.56;5093180;28;20100;-73
2022/03/13 03:18:39;;;;;;;3.67;2.47;;;;;;;16.53;25.35;100435.78;5097716;28;20421;-71
2022/03/13 03:21:04;;;;;;;3.97;1.92;;;;;;;16.38;25.36;100445.19;5106574;28;20533;-72
2022/03/13 03:23:30;;;;;;;2.33;1.77;;;;;;;16.28;25.45;100437.13;5104753;28;20044;-74
2022/03/13 03:25:55;;;;;;;1.65;1.33;;;;;;;16.20;25.68;100435.13;5095719;28;20056;-73
2022/03/13 03:28:22;;;;;;;1.92;1.50;;;;;;;16.13;25.73;100432.16;5095844;28;20066;-72
2022/03/13 03:30:47;;;;;;;2.83;1.83;;;;;;;16.01;25.94;100433.25;5099459;28;20128;-72
2022/03/13 03:33:13;;;;;;;2.20;1.52;;;;;;;15.96;25.42;100424.78;5103316;28;20040;-72
2022/03/13 03:35:39;;;;;;;2.05;1.60;;;;;;;15.97;25.52;100426.47;5101041;28;20043;-73
2022/03/13 03:38:04;;;;;;;5.93;1.50;;;;;;;16.19;25.07;100421.94;5103005;28;20038;-72
2022/03/13 03:40:34;;;;;;;2.60;1.58;;;;;;;16.40;24.95;100421.84;5095555;28;20410;-73
2022/03/13 03:43:02;;;;;;;2.30;1.52;;;;;;;16.59;25.24;100429.91;5106724;28;20455;-72
2022/03/13 03:45:28;;;;;;;2.17;1.45;;;;;;;16.75;24.94;100424.00;5093008;28;20047;-71
2022/03/13 03:47:54;;;;;;;2.13;1.30;;;;;;;16.87;24.51;100424.72;5101581;28;20038;-72
2022/03/13 03:50:20;;;;;;;2.35;1.33;;;;;;;16.97;24.40;100419.44;5106994;28;20035;-71
2022/03/13 03:52:46;;;;;;;2.60;1.33;;;;;;;17.04;24.04;100414.34;5101411;28;20486;-71
2022/03/13 03:55:14;;;;;;;2.28;1.30;;;;;;;17.13;24.24;100412.66;5109433;28;20042;-72
2022/03/13 03:57:40;;;;;;;2.38;1.42;;;;;;;17.15;24.12;100416.00;5107425;28;20115;-71
2022/03/13 04:00:08;;;;;;;2.75;1.40;;;;;;;17.19;24.48;100417.44;5111181;28;20031;-71
2022/03/13 04:02:34;;;;;;;1.60;1.25;;;;;;;17.22;23.79;100419.81;5111449;28;20088;-71
2022/03/13 04:05:00;;;;;;;1.95;1.25;;;;;;;17.24;24.13;100421.34;5110865;28;20027;-72
2022/03/13 04:07:26;;;;;;;1.70;1.10;;;;;;;17.27;23.89;100414.03;5111212;28;20482;-72
2022/03/13 04:09:52;;;;;;;2.15;1.40;;;;;;;17.28;23.87;100421.91;5111444;28;20027;-72
2022/03/13 04:12:18;;;;;;;2.10;1.38;;;;;;;17.32;23.83;100417.13;5111119;28;20031;-72
2022/03/13 04:14:44;;;;;;;1.40;1.08;;;;;;;17.35;23.61;100407.00;5111135;28;20035;-72
2022/03/13 04:17:10;;;;;;;2.22;1.13;;;;;;;17.36;24.08;100406.00;5111080;28;20035;-72
2022/03/13 04:19:35;;;;;;;1.30;1.10;;;;;;;17.37;23.90;100412.19;5111081;28;20036;-73
2022/03/13 04:22:01;;;;;;;1.92;1.15;;;;;;;17.36;23.75;100414.03;5110630;28;20446;-72
2022/03/13 04:24:29;;;;;;;1.92;1.20;;;;;;;17.37;23.85;100428.22;5110623;28;20055;-73
2022/03/13 04:26:56;;;;;;;1.98;0.90;;;;;;;17.37;24.09;100418.41;5109974;28;20110;-72
2022/03/13 04:29:23;;;;;;;1.80;1.13;;;;;;;17.41;23.70;100421.63;5110730;28;20557;-73
2022/03/13 04:31:52;;;;;;;2.13;1.20;;;;;;;17.47;23.61;100420.19;5112091;28;20023;-71
2022/03/13 04:34:17;;;;;;;1.67;1.17;;;;;;;17.47;23.48;100418.38;5113537;28;20028;-72
2022/03/13 04:36:44;;;;;;;1.38;1.00;;;;;;;17.48;23.55;100411.19;5113189;28;20038;-72
2022/03/13 04:39:10;;;;;;;2.22;0.95;;;;;;;17.49;23.55;100421.75;5114812;28;20050;-72
2022/03/13 04:41:37;;;;;;;1.10;0.80;;;;;;;17.49;23.44;100427.09;5114359;28;20043;-72
2022/03/13 04:44:05;;;;;;;1.90;1.13;;;;;;;17.46;23.56;100422.03;5114944;28;20398;-72
2022/03/13 04:46:32;;;;;;;1.42;0.90;;;;;;;17.46;23.72;100423.84;5095499;28;20026;-71
2022/03/13 04:48:57;;;;;;;1.48;0.90;;;;;;;17.46;23.86;100419.38;5095533;28;20151;-72
2022/03/13 04:51:23;;;;;;;2.35;1.20;;;;;;;17.48;23.52;100427.22;5095943;28;20057;-72
2022/03/13 04:53:49;;;;;;;1.30;0.90;;;;;;;17.46;23.79;100426.53;5095650;28;20132;-72
2022/03/13 04:56:15;;;;;;;1.40;0.90;;;;;;;17.48;23.67;100427.22;5095675;28;20024;-72
2022/03/13 04:58:40;;;;;;;1.00;0.80;;;;;;;17.47;23.52;100425.53;5103204;28;20059;-72
2022/03/13 05:01:06;;;;;;;1.70;0.95;;;;;;;17.45;23.65;100424.84;5101504;28;20071;-72
2022/03/13 05:03:33;;;;;;;0.95;0.70;;;;;;;17.47;23.66;100420.19;5095246;28;20032;-72
2022/03/13 05:06:05;;;;;;;1.60;1.08;;;;;;;17.43;23.74;100418.78;5095448;28;20156;-73
2022/03/13 05:08:34;;;;;;;1.20;0.90;;;;;;;17.47;23.76;100420.19;5095163;28;20479;-72
2022/03/13 05:11:00;;;;;;;1.70;0.82;;;;;;;17.45;23.52;100415.00;5095047;28;20028;-71
2022/03/13 05:13:26;;;;;;;1.55;1.10;;;;;;;17.46;23.56;100419.38;5094850;28;20089;-71
2022/03/13 05:15:53;;;;;;;2.65;1.20;;;;;;;17.49;23.70;100429.78;5095218;28;20024;-71
2022/03/13 05:18:19;;;;;;;0.93;0.70;;;;;;;17.49;23.39;100428.91;5095169;28;20482;-70
2022/03/13 05:20:45;;;;;;;1.45;0.95;;;;;;;17.51;23.50;100437.66;5094768;28;20115;-70
2022/03/13 05:23:11;;;;;;;1.48;1.10;;;;;;;17.53;23.52;100433.00;5094811;28;20486;-70
2022/03/13 05:25:38;;;;;;;1.92;1.27;;;;;;;17.53;23.36;100441.88;5094673;28;20064;-71
2022/03/13 05:28:05;;;;;;;1.90;1.25;;;;;;;17.54;23.66;100445.41;5094842;28;20031;-71
2022/03/13 05:30:32;;;;;;;2.13;1.23;;;;;;;17.52;23.71;100437.50;5095231;28;20044;-71
2022/03/13 05:32:58;;;;;;;1.60;1.10;;;;;;;17.50;23.64;100449.34;5095212;28;20036;-71
2022/03/13 05:35:25;;;;;;;1.50;1.00;;;;;;;17.51;23.86;100459.06;5095142;28;20027;-71
2022/03/13 05:37:51;;;;;;;2.42;1.20;;;;;;;17.51;23.81;100461.75;5093147;28;20131;-70
2022/03/13 05:40:18;;;;;;;2.20;1.40;;;;;;;17.52;23.66;100464.25;5094703;28;20032;-71
2022/03/13 05:42:46;;;;;;;1.83;1.10;;;;;;;17.50;23.55;100452.03;5093910;28;20042;-70
2022/03/13 05:45:16;;;;;;;1.92;1.50;;;;;;;17.49;23.80;100456.53;5094574;28;20085;-71
2022/03/13 05:47:51;;;;;;;1.73;1.38;;;;;;;17.48;23.50;100454.00;5094085;28;20114;-72
2022/03/13 05:50:17;;;;;;;3.00;1.42;;;;;;;17.49;23.70;100453.88;5094703;28;20047;-72
2022/03/13 05:52:46;;;;;;;2.25;1.20;;;;;;;17.48;23.98;100460.19;5094351;28;20364;-71
2022/03/13 05:55:13;;;;;;;2.25;1.42;;;;;;;17.48;23.85;100454.00;5094503;28;20055;-71
2022/03/13 05:57:39;;;;;;;2.35;1.60;;;;;;;17.49;24.01;100461.03;5094844;28;20036;-71
2022/03/13 06:00:08;;;;;;;1.88;1.50;;;;;;;17.47;23.69;100465.69;5100474;28;20221;-73
2022/03/13 06:02:36;;;;;;;3.25;1.40;;;;;;;17.49;23.61;100455.69;5111151;28;20035;-72
2022/03/13 06:05:03;;;;;;;3.17;2.08;;;;;;;17.49;23.42;100466.38;5113542;28;20020;-72
2022/03/13 06:07:28;;;;;;;3.20;1.58;;;;;;;17.51;23.47;100461.75;5112923;28;20034;-72
2022/03/13 06:09:54;;;;;;;3.05;1.75;;;;;;;17.50;23.17;100462.72;5111560;28;20027;-72
2022/03/13 06:12:19;;;;;;;3.47;1.67;;;;;;;17.51;23.38;100464.41;5113017;28;20114;-70
2022/03/13 06:14:45;;;;;;;2.33;1.60;;;;;;;17.52;23.79;100471.44;5112772;28;20127;-71
2022/03/13 06:17:10;;;;;;;2.92;1.65;;;;;;;17.51;23.77;100469.75;5112449;28;20043;-70
2022/03/13 06:19:42;;;;;;;2.85;2.10;;;;;;;17.51;23.80;100459.88;5112774;28;20067;-70
2022/03/13 06:22:08;;;;;;;3.00;1.80;;;;;;;17.51;23.74;100461.75;5112661;28;20039;-73
2022/03/13 06:24:34;;;;;;;3.15;1.95;;;;;;;17.53;23.19;100465.94;5112476;27;20059;-73
2022/03/13 06:27:00;;;;;;;3.22;1.77;;;;;;;17.51;23.84;100469.75;5112852;28;20027;-70
2022/03/13 06:29:26;;;;;;;2.60;1.75;;;;;;;17.51;23.77;100465.25;5112765;28;20074;-71
2022/03/13 06:31:52;;;;;;;3.55;1.80;;;;;;;17.52;23.69;100458.91;5112348;28;20070;-71
2022/03/13 06:34:18;;;;;;;2.92;1.63;;;;;;;17.53;23.85;100467.78;5112285;28;20034;-73
2022/03/13 06:36:44;;;;;;;2.38;1.48;;;;;;;17.54;23.71;100472.16;5112479;28;20031;-69
2022/03/13 06:39:09;;;;;;;3.22;1.88;;;;;;;17.55;23.97;100465.81;5111036;28;20038;-70
2022/03/13 06:41:36;;;;;;;2.88;1.88;;;;;;;17.54;23.80;100466.81;5110665;28;20046;-69
2022/03/13 06:44:02;;;;;;;3.55;2.03;;;;;;;17.54;23.62;100472.16;5112071;28;20035;-69
2022/03/13 06:46:28;;;;;;;3.22;1.90;;;;;;;17.53;24.00;100465.94;5112258;28;20043;-71
2022/03/13 06:48:53;;;;;;;2.70;2.00;;;;;;;17.54;24.05;100458.78;5109078;28;20186;-70
2022/03/13 06:51:20;;;;;;;3.03;1.98;;;;;;;17.55;24.06;100465.81;5093292;28;20027;-70
2022/03/13 06:53:45;;;;;;;3.55;2.25;;;;;;;17.56;23.93;100467.50;5092655;28;20036;-70
2022/03/13 06:56:11;;;;;;;4.50;2.55;;;;;;;17.57;23.98;100458.50;5092477;28;20038;-70
2022/03/13 06:58:37;;;;;;;3.53;2.30;;;;;;;17.58;24.28;100453.97;5099716;28;20035;-70
2022/03/13 07:01:06;;;;;;;3.25;2.22;;;;;;;17.61;24.17;100448.34;5097756;28;20035;-74
2022/03/13 07:03:32;;;;;;;6.28;2.50;;;;;;;17.62;24.07;100445.50;5112072;28;20401;-72
2022/03/13 07:05:58;;;;;;;4.05;2.38;;;;;;;17.63;24.01;100452.56;5112042;28;20055;-71
2022/03/13 07:08:24;;;;;;;5.78;2.67;;;;;;;17.69;24.18;100451.13;5111886;28;20425;-70
2022/03/13 07:10:50;;;;;;;4.82;2.47;;;;;;;17.73;24.27;100446.31;5111884;28;20501;-71
2022/03/13 07:13:18;;;;;;;4.63;2.13;;;;;;;17.75;24.18;100436.31;5111537;28;20042;-73
2022/03/13 07:15:44;;;;;;;2.95;2.15;;;;;;;17.77;23.93;100440.56;5111687;28;20406;-71
2022/03/13 07:18:09;;;;;;;4.63;2.60;;;;;;;17.85;24.02;100442.50;5111422;28;20050;-72
2022/03/13 07:20:35;;;;;;;4.82;2.22;;;;;;;17.86;24.15;100436.16;5111751;28;20508;-71
2022/03/13 07:23:00;;;;;;;4.15;2.40;;;;;;;17.91;24.09;100443.75;5111466;28;20162;-70
2022/03/13 07:25:26;;;;;;;7.97;3.92;;;;;;;17.92;24.19;100429.38;5111319;28;20061;-70
2022/03/13 07:27:51;;;;;;;4.32;2.40;;;;;;;17.95;24.19;100429.06;5111526;28;20035;-69
2022/03/13 07:30:17;;;;;;;4.05;2.35;;;;;;;18.01;24.26;100425.84;5111836;28;20110;-70
2022/03/13 07:32:43;;;;;;;5.40;3.05;;;;;;;18.06;24.06;100420.03;5111235;28;20465;-71
2022/03/13 07:35:10;;;;;;;3.38;2.50;;;;;;;18.09;24.01;100420.56;5111596;28;20076;-70
2022/03/13 07:37:36;;;;;;;4.93;2.80;;;;;;;18.16;24.16;100426.16;5107310;28;20070;-70
2022/03/13 07:40:02;;;;;;;5.30;2.85;;;;;;;18.20;23.95;100427.56;5111389;28;20059;-69
2022/03/13 07:42:28;;;;;;;4.00;2.78;;;;;;;18.23;23.98;100426.44;5111071;28;20038;-70
2022/03/13 07:44:54;;;;;;;5.72;3.10;;;;;;;18.29;24.03;100418.66;5111476;28;20110;-70
2022/03/13 07:47:19;;;;;;;4.60;3.03;;;;;;;18.33;24.01;100423.69;5112274;28;20379;-70
2022/03/13 07:49:45;;;;;;;5.78;3.03;;;;;;;18.36;23.94;100421.56;5111117;28;20028;-69
2022/03/13 07:52:11;;;;;;;4.57;3.55;;;;;;;18.41;24.02;100423.81;5111000;28;20112;-69
2022/03/13 07:54:36;;;;;;;4.38;3.35;;;;;;;18.48;23.90;100416.81;5111784;28;20023;-70
2022/03/13 07:57:02;;;;;;;5.63;3.65;;;;;;;18.50;23.92;100422.88;5101088;28;20039;-70
2022/03/13 07:59:28;;;;;;;5.65;3.55;;;;;;;18.55;23.75;100436.69;5098266;28;20043;-71
2022/03/13 08:01:53;;;;;;;5.72;2.83;;;;;;;18.58;23.79;100438.22;5103976;28;20406;-71
2022/03/13 08:04:19;;;;;;;3.95;3.28;;;;;;;18.56;23.67;100435.69;5111405;28;20145;-71
2022/03/13 08:06:45;;;;;;;5.72;3.00;;;;;;;18.59;23.91;100450.63;5109284;28;20505;-69
2022/03/13 08:09:10;;;;;;;4.93;2.60;;;;;;;18.58;23.91;100455.16;5111295;28;20027;-70
2022/03/13 08:11:38;;;;;;;3.70;2.92;;;;;;;18.61;23.97;100459.34;5097771;28;20028;-70
2022/03/13 08:14:04;;;;;;;3.75;2.83;;;;;;;18.58;23.97;100447.13;5092152;28;20128;-70
2022/03/13 08:16:31;;;;;;;5.05;3.55;;;;;;;18.57;23.78;100453.47;5091835;28;20047;-70
2022/03/13 08:18:56;;;;;;;11.57;7.45;;;;;;;18.58;24.00;100456.97;5092297;28;20111;-69
2022/03/13 08:21:22;;;;;;;6.25;3.90;;;;;;;18.56;23.99;100450.91;5091885;28;20161;-69
2022/03/13 08:23:48;;;;;;;5.32;3.50;;;;;;;18.58;24.01;100452.47;5092005;28;20032;-69
2022/03/13 08:26:13;;;;;;;7.25;2.75;;;;;;;18.56;23.86;100443.72;5092052;28;20151;-70
2022/03/13 08:28:41;;;;;;;4.15;2.90;;;;;;;18.61;24.03;100441.44;5092547;28;20039;-70
2022/03/13 08:31:07;;;;;;;4.30;3.40;;;;;;;18.63;23.90;100438.63;5092106;28;20471;-69
2022/03/13 08:33:33;;;;;;;4.53;3.50;;;;;;;18.65;23.99;100428.59;5092362;28;20510;-69
2022/03/13 08:35:59;;;;;;;3.78;2.80;;;;;;;18.65;23.79;100433.09;5092159;28;20153;-70
2022/03/13 08:38:25;;;;;;;4.93;2.90;;;;;;;18.69;23.84;100423.75;5092487;28;20223;-70
2022/03/13 08:40:50;;;;;;;4.65;3.25;;;;;;;18.75;23.72;100428.50;5090808;28;20028;-70
2022/03/13 08:43:16;;;;;;;4.75;3.13;;;;;;;18.81;23.77;100437.78;5092343;28;20039;-69
2022/03/13 08:45:42;;;;;;;6.35;3.60;;;;;;;18.82;23.65;100431.44;5092243;28;20031;-70
2022/03/13 08:48:08;;;;;;;3.83;2.97;;;;;;;18.83;23.71;100433.94;5092497;28;20523;-69
2022/03/13 08:50:33;;;;;;;4.75;3.00;;;;;;;18.87;23.72;100439.84;5092475;28;20032;-69
2022/03/13 08:53:00;;;;;;;4.13;3.00;;;;;;;18.86;23.70;100444.38;5091801;28;20039;-71
2022/03/13 08:55:25;;;;;;;4.72;3.45;;;;;;;18.88;23.46;100434.34;5092409;28;20119;-71
2022/03/13 08:57:51;;;;;;;3.92;3.15;;;;;;;18.90;23.77;100437.69;5094685;28;20119;-70
2022/03/13 09:00:18;;;;;;;5.30;2.78;;;;;;;18.94;23.58;100430.22;5103891;28;20055;-71
2022/03/13 09:02:45;;;;;;;4.63;3.00;;;;;;;18.96;23.75;100416.66;5092270;28;20123;-72
2022/03/13 09:05:11;;;;;;;4.60;3.05;;;;;;;18.96;23.64;100420.19;5092865;28;20380;-73
2022/03/13 09:07:37;;;;;;;4.65;2.60;;;;;;;18.97;23.74;100419.19;5091704;28;20040;-73
2022/03/13 09:10:06;;;;;;;5.05;2.80;;;;;;;19.01;23.69;100414.38;5091119;28;20035;-72
2022/03/13 09:12:31;;;;;;;3.83;2.90;;;;;;;19.02;23.61;100414.19;5112230;28;20460;-72
2022/03/13 09:14:58;;;;;;;4.15;2.88;;;;;;;19.07;23.63;100408.38;5112619;28;20031;-72
2022/03/13 09:17:24;;;;;;;4.32;3.17;;;;;;;19.13;23.78;100404.22;5112634;28;20070;-72
2022/03/13 09:19:50;;;;;;;4.88;3.05;;;;;;;19.17;23.73;100398.41;5115942;27;20032;-72
2022/03/13 09:22:17;;;;;;;5.20;3.15;;;;;;;19.21;23.40;100402.44;5115376;28;20047;-71
2022/03/13 09:24:45;;;;;;;3.38;2.72;;;;;;;19.25;23.55;100400.31;5115946;28;20179;-72
2022/03/13 09:27:11;;;;;;;4.68;3.20;;;;;;;19.27;23.39;100394.78;5115739;28;20031;-73
2022/03/13 09:29:37;;;;;;;3.90;2.83;;;;;;;19.33;23.39;100403.03;5115948;27;20035;-73
2022/03/13 09:32:02;;;;;;;6.13;3.08;;;;;;;19.39;23.41;100406.09;5115491;28;20036;-72
2022/03/13 09:34:28;;;;;;;6.70;3.40;;;;;;;19.39;23.35;100408.78;5115926;28;20031;-73
2022/03/13 09:36:54;;;;;;;3.60;2.60;;;;;;;19.36;23.49;100399.19;5115939;28;20406;-74
2022/03/13 09:39:19;;;;;;;5.72;3.15;;;;;;;19.40;23.18;100403.25;5115647;28;20088;-72
2022/03/13 09:41:45;;;;;;;6.25;2.83;;;;;;;19.42;23.43;100403.94;5115321;28;20048;-74
2022/03/13 09:44:10;;;;;;;5.47;3.55;;;;;;;19.43;23.32;100392.22;5115565;28;20039;-72
2022/03/13 09:46:38;;;;;;;5.80;3.15;;;;;;;19.47;23.33;100398.09;5115636;28;20031;-72
2022/03/13 09:49:04;;;;;;;4.18;2.58;;;;;;;19.48;23.32;100395.25;5111179;28;20402;-72
2022/03/13 09:51:30;;;;;;;4.97;3.38;;;;;;;19.49;23.35;100402.28;5094945;28;20471;-71
2022/03/13 09:53:57;;;;;;;5.05;3.17;;;;;;;19.50;23.38;100395.09;5094969;28;20042;-72
2022/03/13 09:56:23;;;;;;;4.97;3.13;;;;;;;19.50;23.26;100387.06;5095035;28;20070;-73
2022/03/13 09:58:48;;;;;;;6.15;3.63;;;;;;;19.50;23.35;100390.56;5095281;28;20067;-73
2022/03/13 10:01:14;;;;;;;4.93;2.88;;;;;;;19.52;23.47;100396.63;5096743;28;20081;-72
2022/03/13 10:03:40;;;;;;;5.57;3.25;;;;;;;19.54;23.42;100387.56;5115374;28;20069;-74
2022/03/13 10:06:06;;;;;;;5.05;3.05;;;;;;;19.56;23.25;100390.94;5115024;27;20031;-72
2022/03/13 10:08:34;;;;;;;3.95;3.08;;;;;;;19.56;23.33;100390.94;5114728;28;20501;-73
2022/03/13 10:11:02;;;;;;;3.90;2.80;;;;;;;19.55;23.40;100384.75;5115364;28;20028;-72
2022/03/13 10:13:40;;;;;;;5.38;3.13;;;;;;;19.59;23.30;100390.63;5115044;28;20038;-73
2022/03/13 10:16:20;;;;;;;6.40;3.15;;;;;;;19.59;23.04;100385.25;5114951;28;20039;-71
2022/03/13 10:18:46;;;;;;;4.72;3.05;;;;;;;19.61;23.40;100377.88;5115124;28;20057;-72
2022/03/13 10:21:14;;;;;;;5.90;3.25;;;;;;;19.60;23.24;100376.22;5114702;28;20036;-72
2022/03/13 10:23:40;;;;;;;4.95;3.35;;;;;;;19.64;23.05;100377.56;5114802;27;20042;-71
2022/03/13 10:26:07;;;;;;;4.95;3.72;;;;;;;19.65;23.15;100368.50;5114620;28;20513;-72
2022/03/13 10:28:40;;;;;;;3.85;2.50;;;;;;;19.69;23.21;100358.31;5114163;28;20114;-72
2022/03/13 10:31:17;;;;;;;4.07;2.83;;;;;;;19.72;23.34;100356.13;5114450;28;20031;-73
2022/03/13 10:33:42;;;;;;;4.70;3.17;;;;;;;19.75;23.40;100353.13;5114461;28;20062;-73
2022/03/13 10:36:16;;;;;;;4.53;3.20;;;;;;;19.77;23.23;100343.06;5108442;28;20064;-72
2022/03/13 10:38:43;;;;;;;4.40;3.00;;;;;;;19.80;23.29;100344.59;5093876;28;20028;-70
2022/03/13 10:41:09;;;;;;;5.10;3.20;;;;;;;19.83;23.23;100345.09;5093953;28;20039;-71
2022/03/13 10:43:51;;;;;;;4.78;3.10;;;;;;;19.85;23.27;100344.94;5093821;28;20114;-72
2022/03/13 10:46:30;;;;;;;5.40;3.42;;;;;;;19.86;23.25;100343.09;5099228;28;20128;-69
2022/03/13 10:48:58;;;;;;;3.88;2.90;;;;;;;19.88;23.28;100341.13;5107975;27;20023;-70
2022/03/13 10:51:48;;;;;;;5.25;3.20;;;;;;;19.88;23.46;100330.38;5093382;28;20620;-70
2022/03/13 10:54:32;;;;;;;5.63;3.65;;;;;;;19.90;23.49;100333.75;5093618;28;20024;-71
2022/03/13 10:57:09;;;;;;;4.30;3.28;;;;;;;19.92;23.51;100339.81;5105453;28;20367;-71
2022/03/13 10:59:35;;;;;;;4.72;3.10;;;;;;;19.92;23.40;100337.94;5104905;27;20050;-71
2022/03/13 11:02:14;;;;;;;4.32;2.50;;;;;;;19.95;23.48;100334.09;5110350;27;20039;-71
2022/03/13 11:04:46;;;;;;;6.10;3.17;;;;;;;19.96;23.35;100344.69;5111173;28;20100;-70
2022/03/13 11:07:12;;;;;;;4.63;3.40;;;;;;;19.95;23.31;100331.41;5111817;28;20028;-70
2022/03/13 11:09:38;;;;;;;4.85;3.60;;;;;;;19.94;23.28;100329.72;5111396;27;20440;-69
2022/03/13 11:12:06;;;;;;;4.38;2.65;;;;;;;19.97;23.40;100337.44;5103751;28;20586;-69
2022/03/13 11:14:33;;;;;;;5.10;3.28;;;;;;;19.97;23.20;100324.03;5112566;27;20542;-70
2022/03/13 11:16:59;;;;;;;4.82;3.17;;;;;;;19.97;23.27;100322.19;5113363;27;20035;-70
2022/03/13 11:19:24;;;;;;;3.90;2.83;;;;;;;19.99;23.43;100321.19;5111739;27;20406;-69
2022/03/13 11:21:50;;;;;;;5.38;3.67;;;;;;;20.00;23.66;100306.75;5096613;28;20117;-70
2022/03/13 11:24:15;;;;;;;5.07;3.00;;;;;;;20.01;23.63;100319.16;5092770;28;20074;-69